createdAt,value
2018-03-29T00:00:05.072Z,958.92
2018-03-29T00:01:05.139Z,959.06
2018-03-29T00:02:05.808Z,958.98
2018-03-29T00:03:05.179Z,958.98
2018-03-29T00:04:05.661Z,959.01
2018-03-29T00:05:05.930Z,959.12
2018-03-29T00:06:05.199Z,959.07
2018-03-29T00:07:05.634Z,959.04
2018-03-29T00:08:05.493Z,959.04
2018-03-29T00:09:05.802Z,959.16
2018-03-29T00:10:05.715Z,959.16
2018-03-29T00:11:05.735Z,959.07
2018-03-29T00:12:05.291Z,959.13
2018-03-29T00:13:05.149Z,959.20
2018-03-29T00:14:05.062Z,959.18
2018-03-29T00:15:05.507Z,959.13
2018-03-29T00:16:05.092Z,959.23
2018-03-29T00:17:05.713Z,959.23
2018-03-29T00:18:05.182Z,959.29
2018-03-29T00:19:05.836Z,959.26
2018-03-29T00:20:05.044Z,959.24
2018-03-29T00:21:05.896Z,959.32
2018-03-29T00:22:05.945Z,959.49
2018-03-29T00:23:05.937Z,959.35
2018-03-29T00:24:05.539Z,959.38
2018-03-29T00:25:05.720Z,959.44
2018-03-29T00:26:05.202Z,959.35
2018-03-29T00:27:05.823Z,959.44
2018-03-29T00:28:04.963Z,959.52
2018-03-29T00:29:05.696Z,959.44
2018-03-29T00:30:05.769Z,959.72
2018-03-29T00:31:05.478Z,959.72
2018-03-29T00:32:05.395Z,959.61
2018-03-29T00:33:05.268Z,959.83
2018-03-29T00:34:05.248Z,959.61
2018-03-29T00:35:05.522Z,959.95
2018-03-29T00:36:05.874Z,959.81
2018-03-29T00:37:05.757Z,959.95
2018-03-29T00:38:05.325Z,959.95
2018-03-29T00:39:05.129Z,959.96
2018-03-29T00:40:05.414Z,959.96
2018-03-29T00:41:05.156Z,960.07
2018-03-29T00:42:05.724Z,960.10
2018-03-29T00:43:05.322Z,960.05
2018-03-29T00:44:05.468Z,960.02
2018-03-29T00:45:04.988Z,960.28
2018-03-29T00:46:05.933Z,960.05
2018-03-29T00:47:05.827Z,960.17
2018-03-29T00:48:05.634Z,960.17
2018-03-29T00:49:05.206Z,960.03
2018-03-29T00:50:05.560Z,960.23
2018-03-29T00:51:05.206Z,960.26
2018-03-29T00:52:05.126Z,960.03
2018-03-29T00:53:05.683Z,960.26
2018-03-29T00:54:05.275Z,960.23
2018-03-29T00:55:05.263Z,960.15
2018-03-29T00:56:05.266Z,960.26
2018-03-29T00:57:05.439Z,960.30
2018-03-29T00:58:05.386Z,960.38
2018-03-29T00:59:05.211Z,960.33
2018-03-29T01:00:05.983Z,960.47
2018-03-29T01:01:05.947Z,960.47
2018-03-29T01:02:05.996Z,960.53
2018-03-29T01:03:05.058Z,960.67
2018-03-29T01:04:05.599Z,960.42
2018-03-29T01:05:05.395Z,960.36
2018-03-29T01:06:05.342Z,960.28
2018-03-29T01:07:05.464Z,960.40
2018-03-29T01:08:05.202Z,960.40
2018-03-29T01:09:05.073Z,960.57
2018-03-29T01:10:05.668Z,960.51
2018-03-29T01:11:05.411Z,960.54
2018-03-29T01:12:05.798Z,960.57
2018-03-29T01:13:05.168Z,960.52
2018-03-29T01:14:05.846Z,960.40
2018-03-29T01:15:05.612Z,960.52
2018-03-29T01:16:05.049Z,960.60
2018-03-29T01:17:05.729Z,960.63
2018-03-29T01:18:05.384Z,960.55
2018-03-29T01:19:05.562Z,960.78
2018-03-29T01:20:05.690Z,960.47
2018-03-29T01:21:05.239Z,960.53
2018-03-29T01:22:05.711Z,960.78
2018-03-29T01:23:05.451Z,960.83
2018-03-29T01:24:05.940Z,960.61
2018-03-29T01:25:05.223Z,960.70
2018-03-29T01:26:05.638Z,960.73
2018-03-29T01:27:04.946Z,960.70
2018-03-29T01:28:10.863Z,960.73
2018-03-29T01:29:05.663Z,960.71
2018-03-29T01:30:05.330Z,960.81
2018-03-29T01:31:05.693Z,960.84
2018-03-29T01:32:05.119Z,960.84
2018-03-29T01:33:05.792Z,960.90
2018-03-29T01:34:10.644Z,960.87
2018-03-29T01:35:05.584Z,960.98
2018-03-29T01:36:05.454Z,961.01
2018-03-29T01:37:05.304Z,960.93
2018-03-29T01:38:06.077Z,961.01
2018-03-29T01:39:05.051Z,961.10
2018-03-29T01:40:05.591Z,961.15
2018-03-29T01:41:05.800Z,961.18
2018-03-29T01:42:05.422Z,961.10
2018-03-29T01:43:05.885Z,961.02
2018-03-29T01:44:06.021Z,961.24
2018-03-29T01:45:05.250Z,961.13
2018-03-29T01:46:05.937Z,961.16
2018-03-29T01:47:05.124Z,961.16
2018-03-29T01:48:05.217Z,961.27
2018-03-29T01:49:05.691Z,961.19
2018-03-29T01:50:06.728Z,961.36
2018-03-29T01:51:05.302Z,961.13
2018-03-29T01:52:04.959Z,961.22
2018-03-29T01:53:05.422Z,961.27
2018-03-29T01:54:05.629Z,961.36
2018-03-29T01:55:05.652Z,961.45
2018-03-29T01:56:05.108Z,961.42
2018-03-29T01:57:05.743Z,961.33
2018-03-29T01:58:05.232Z,961.34
2018-03-29T01:59:05.736Z,961.59
2018-03-29T02:00:05.417Z,961.59
2018-03-29T02:01:05.684Z,961.56
2018-03-29T02:02:05.245Z,961.62
2018-03-29T02:03:05.778Z,961.68
2018-03-29T02:04:05.909Z,961.68
2018-03-29T02:05:05.176Z,961.54
2018-03-29T02:06:05.627Z,961.57
2018-03-29T02:07:05.281Z,961.65
2018-03-29T02:08:05.169Z,961.65
2018-03-29T02:09:05.921Z,961.68
2018-03-29T02:10:06.201Z,961.74
2018-03-29T02:11:05.167Z,961.74
2018-03-29T02:12:05.950Z,961.77
2018-03-29T02:13:05.383Z,961.77
2018-03-29T02:14:05.582Z,961.71
2018-03-29T02:15:05.835Z,961.82
2018-03-29T02:16:05.522Z,961.82
2018-03-29T02:17:05.674Z,961.91
2018-03-29T02:18:05.205Z,961.85
2018-03-29T02:19:05.152Z,961.85
2018-03-29T02:20:05.131Z,961.85
2018-03-29T02:21:05.871Z,961.77
2018-03-29T02:22:05.420Z,961.77
2018-03-29T02:23:05.691Z,961.80
2018-03-29T02:24:05.105Z,961.85
2018-03-29T02:25:05.725Z,961.86
2018-03-29T02:26:05.537Z,962.06
2018-03-29T02:27:05.854Z,961.83
2018-03-29T02:28:05.692Z,962.06
2018-03-29T02:29:05.463Z,961.94
2018-03-29T02:30:06.533Z,961.95
2018-03-29T02:31:05.800Z,962.12
2018-03-29T02:32:05.697Z,962.06
2018-03-29T02:33:05.637Z,962.12
2018-03-29T02:34:05.907Z,962.15
2018-03-29T02:35:05.081Z,962.17
2018-03-29T02:36:05.523Z,962.12
2018-03-29T02:37:05.930Z,962.34
2018-03-29T02:38:05.128Z,961.95
2018-03-29T02:39:05.756Z,962.23
2018-03-29T02:40:05.640Z,962.23
2018-03-29T02:41:05.438Z,962.20
2018-03-29T02:42:05.493Z,962.18
2018-03-29T02:43:05.737Z,962.37
2018-03-29T02:44:05.425Z,962.31
2018-03-29T02:45:05.463Z,962.31
2018-03-29T02:46:05.547Z,962.20
2018-03-29T02:47:05.415Z,962.37
2018-03-29T02:48:05.820Z,962.40
2018-03-29T02:49:05.758Z,962.46
2018-03-29T02:50:05.311Z,962.37
2018-03-29T02:51:05.817Z,962.48
2018-03-29T02:52:05.522Z,962.48
2018-03-29T02:53:05.654Z,962.50
2018-03-29T02:54:05.754Z,962.46
2018-03-29T02:55:05.857Z,962.50
2018-03-29T02:56:05.760Z,962.43
2018-03-29T02:57:05.731Z,962.48
2018-03-29T02:58:05.253Z,962.62
2018-03-29T02:59:05.822Z,962.76
2018-03-29T03:00:05.977Z,962.68
2018-03-29T03:01:05.832Z,962.68
2018-03-29T03:02:04.967Z,962.74
2018-03-29T03:03:05.027Z,962.79
2018-03-29T03:04:05.538Z,962.74
2018-03-29T03:05:05.619Z,962.60
2018-03-29T03:06:05.183Z,962.69
2018-03-29T03:07:05.277Z,962.74
2018-03-29T03:08:05.919Z,962.83
2018-03-29T03:09:04.991Z,962.77
2018-03-29T03:10:05.963Z,962.72
2018-03-29T03:11:05.148Z,962.72
2018-03-29T03:12:05.637Z,962.75
2018-03-29T03:13:05.675Z,962.75
2018-03-29T03:14:04.925Z,962.86
2018-03-29T03:15:05.526Z,962.69
2018-03-29T03:16:05.743Z,962.72
2018-03-29T03:17:06.853Z,962.92
2018-03-29T03:18:05.416Z,962.83
2018-03-29T03:19:05.738Z,962.89
2018-03-29T03:20:05.977Z,962.86
2018-03-29T03:21:05.362Z,962.86
2018-03-29T03:22:06.753Z,962.81
2018-03-29T03:23:05.191Z,962.95
2018-03-29T03:24:05.819Z,962.90
2018-03-29T03:25:05.354Z,962.87
2018-03-29T03:26:05.601Z,962.81
2018-03-29T03:27:05.219Z,962.84
2018-03-29T03:28:05.770Z,962.81
2018-03-29T03:29:05.250Z,963.01
2018-03-29T03:30:05.335Z,962.99
2018-03-29T03:31:05.889Z,962.99
2018-03-29T03:32:05.233Z,963.04
2018-03-29T03:33:05.008Z,962.85
2018-03-29T03:34:05.627Z,963.04
2018-03-29T03:35:05.246Z,963.02
2018-03-29T03:36:05.159Z,962.99
2018-03-29T03:37:11.278Z,962.96
2018-03-29T03:38:05.196Z,963.13
2018-03-29T03:39:05.609Z,963.16
2018-03-29T03:40:05.580Z,963.22
2018-03-29T03:41:05.296Z,963.33
2018-03-29T03:42:05.449Z,963.30
2018-03-29T03:43:05.624Z,963.28
2018-03-29T03:44:05.668Z,963.25
2018-03-29T03:45:05.719Z,963.22
2018-03-29T03:46:05.700Z,963.45
2018-03-29T03:47:05.514Z,963.42
2018-03-29T03:48:06.089Z,963.20
2018-03-29T03:49:05.593Z,963.34
2018-03-29T03:50:05.099Z,963.39
2018-03-29T03:51:05.878Z,963.37
2018-03-29T03:52:05.361Z,963.29
2018-03-29T03:53:05.828Z,963.48
2018-03-29T03:54:05.881Z,963.51
2018-03-29T03:55:05.369Z,963.40
2018-03-29T03:56:05.719Z,963.60
2018-03-29T03:57:05.832Z,963.52
2018-03-29T03:58:05.939Z,963.60
2018-03-29T03:59:05.657Z,963.57
2018-03-29T04:00:05.372Z,963.66
2018-03-29T04:01:05.595Z,963.49
2018-03-29T04:02:05.293Z,963.63
2018-03-29T04:03:05.163Z,963.69
2018-03-29T04:04:05.685Z,963.66
2018-03-29T04:05:05.480Z,963.78
2018-03-29T04:06:05.824Z,963.72
2018-03-29T04:07:05.065Z,963.75
2018-03-29T04:08:05.635Z,963.69
2018-03-29T04:09:04.996Z,963.86
2018-03-29T04:10:05.367Z,963.91
2018-03-29T04:11:05.368Z,963.67
2018-03-29T04:12:06.847Z,963.78
2018-03-29T04:13:05.622Z,963.78
2018-03-29T04:14:06.125Z,963.76
2018-03-29T04:15:05.580Z,963.81
2018-03-29T04:16:05.859Z,963.70
2018-03-29T04:17:05.004Z,963.73
2018-03-29T04:18:05.502Z,963.89
2018-03-29T04:19:05.717Z,963.81
2018-03-29T04:20:05.366Z,963.92
2018-03-29T04:21:06.035Z,963.92
2018-03-29T04:22:05.070Z,963.87
2018-03-29T04:23:05.567Z,963.85
2018-03-29T04:24:05.009Z,963.92
2018-03-29T04:25:05.996Z,963.98
2018-03-29T04:26:05.851Z,963.92
2018-03-29T04:27:05.833Z,963.79
2018-03-29T04:28:05.413Z,963.98
2018-03-29T04:29:05.287Z,963.92
2018-03-29T04:30:04.965Z,964.00
2018-03-29T04:31:05.505Z,963.89
2018-03-29T04:32:05.527Z,963.92
2018-03-29T04:33:05.789Z,964.06
2018-03-29T04:34:05.286Z,964.04
2018-03-29T04:35:05.285Z,964.01
2018-03-29T04:36:05.858Z,964.09
2018-03-29T04:37:05.577Z,964.01
2018-03-29T04:38:05.129Z,964.18
2018-03-29T04:39:05.518Z,964.10
2018-03-29T04:40:05.534Z,963.98
2018-03-29T04:41:05.989Z,964.27
2018-03-29T04:42:05.184Z,964.07
2018-03-29T04:43:05.345Z,964.29
2018-03-29T04:44:05.892Z,964.13
2018-03-29T04:45:05.577Z,964.18
2018-03-29T04:46:05.052Z,964.27
2018-03-29T04:47:05.588Z,964.35
2018-03-29T04:48:05.461Z,964.27
2018-03-29T04:49:05.091Z,964.24
2018-03-29T04:50:05.913Z,964.38
2018-03-29T04:51:06.050Z,964.38
2018-03-29T04:52:05.020Z,964.38
2018-03-29T04:53:05.727Z,964.47
2018-03-29T04:54:06.215Z,964.39
2018-03-29T04:55:05.593Z,964.50
2018-03-29T04:56:05.149Z,964.56
2018-03-29T04:57:05.801Z,964.59
2018-03-29T04:58:05.833Z,964.59
2018-03-29T04:59:05.382Z,964.70
2018-03-29T05:00:05.838Z,964.76
2018-03-29T05:01:05.937Z,964.78
2018-03-29T05:02:05.515Z,964.92
2018-03-29T05:03:05.317Z,964.73
2018-03-29T05:04:06.037Z,964.76
2018-03-29T05:05:05.904Z,964.79
2018-03-29T05:06:05.509Z,964.86
2018-03-29T05:07:05.518Z,964.89
2018-03-29T05:08:05.458Z,964.92
2018-03-29T05:09:05.419Z,964.95
2018-03-29T05:10:05.129Z,964.89
2018-03-29T05:11:05.705Z,965.04
2018-03-29T05:12:05.459Z,965.01
2018-03-29T05:13:05.976Z,964.95
2018-03-29T05:14:05.612Z,965.06
2018-03-29T05:15:05.808Z,964.90
2018-03-29T05:16:05.314Z,964.84
2018-03-29T05:17:05.500Z,965.09
2018-03-29T05:18:05.846Z,965.09
2018-03-29T05:19:05.706Z,964.92
2018-03-29T05:20:05.254Z,964.92
2018-03-29T05:21:05.952Z,965.09
2018-03-29T05:22:05.765Z,965.06
2018-03-29T05:23:05.236Z,964.95
2018-03-29T05:24:05.261Z,965.09
2018-03-29T05:25:05.747Z,965.15
2018-03-29T05:26:05.167Z,965.09
2018-03-29T05:27:05.401Z,965.06
2018-03-29T05:28:05.400Z,965.12
2018-03-29T05:29:05.132Z,965.06
2018-03-29T05:30:05.765Z,965.01
2018-03-29T05:31:07.490Z,965.01
2018-03-29T05:32:05.002Z,965.23
2018-03-29T05:33:05.045Z,965.20
2018-03-29T05:34:05.563Z,965.12
2018-03-29T05:35:05.568Z,965.09
2018-03-29T05:36:05.204Z,965.12
2018-03-29T05:37:05.973Z,965.26
2018-03-29T05:38:05.995Z,965.17
2018-03-29T05:39:05.570Z,965.34
2018-03-29T05:40:04.939Z,965.31
2018-03-29T05:41:05.882Z,965.23
2018-03-29T05:42:05.407Z,965.37
2018-03-29T05:43:05.278Z,965.29
2018-03-29T05:44:05.744Z,965.40
2018-03-29T05:45:05.232Z,965.32
2018-03-29T05:46:05.160Z,965.29
2018-03-29T05:47:05.812Z,965.32
2018-03-29T05:48:05.225Z,965.26
2018-03-29T05:49:05.790Z,965.34
2018-03-29T05:50:05.105Z,965.37
2018-03-29T05:51:06.029Z,965.29
2018-03-29T05:52:06.748Z,965.45
2018-03-29T05:53:05.160Z,965.48
2018-03-29T05:54:05.690Z,965.51
2018-03-29T05:55:04.964Z,965.48
2018-03-29T05:56:05.481Z,965.59
2018-03-29T05:57:05.766Z,965.53
2018-03-29T05:58:05.807Z,965.61
2018-03-29T05:59:06.000Z,965.50
2018-03-29T06:00:05.095Z,965.45
2018-03-29T06:01:05.405Z,965.56
2018-03-29T06:02:05.515Z,965.53
2018-03-29T06:03:05.251Z,965.45
2018-03-29T06:04:05.765Z,965.60
2018-03-29T06:05:05.770Z,965.59
2018-03-29T06:06:05.817Z,965.60
2018-03-29T06:07:05.554Z,965.63
2018-03-29T06:08:05.650Z,965.66
2018-03-29T06:09:05.582Z,965.68
2018-03-29T06:10:05.436Z,965.66
2018-03-29T06:11:05.733Z,965.60
2018-03-29T06:12:05.757Z,965.63
2018-03-29T06:13:04.960Z,965.55
2018-03-29T06:14:05.719Z,965.68
2018-03-29T06:15:05.072Z,965.55
2018-03-29T06:16:05.481Z,965.58
2018-03-29T06:17:05.504Z,965.60
2018-03-29T06:18:05.350Z,965.68
2018-03-29T06:19:05.010Z,965.65
2018-03-29T06:20:05.624Z,965.68
2018-03-29T06:21:05.661Z,965.88
2018-03-29T06:22:05.436Z,965.76
2018-03-29T06:23:05.935Z,965.74
2018-03-29T06:24:04.954Z,965.74
2018-03-29T06:25:05.661Z,965.65
2018-03-29T06:26:05.561Z,965.65
2018-03-29T06:27:05.267Z,965.60
2018-03-29T06:28:05.906Z,965.62
2018-03-29T06:29:05.324Z,965.82
2018-03-29T06:30:05.892Z,965.71
2018-03-29T06:31:05.862Z,965.65
2018-03-29T06:32:05.515Z,965.74
2018-03-29T06:33:04.958Z,965.85
2018-03-29T06:34:05.683Z,965.82
2018-03-29T06:35:05.602Z,965.85
2018-03-29T06:36:05.770Z,965.76
2018-03-29T06:37:05.475Z,965.79
2018-03-29T06:38:05.535Z,965.88
2018-03-29T06:39:05.345Z,965.93
2018-03-29T06:40:06.070Z,965.85
2018-03-29T06:41:05.738Z,965.87
2018-03-29T06:42:05.105Z,965.96
2018-03-29T06:43:05.867Z,965.93
2018-03-29T06:44:05.170Z,966.10
2018-03-29T06:45:05.787Z,965.93
2018-03-29T06:46:05.635Z,965.87
2018-03-29T06:47:05.696Z,965.90
2018-03-29T06:48:05.522Z,965.98
2018-03-29T06:49:05.340Z,965.92
2018-03-29T06:50:05.034Z,966.06
2018-03-29T06:51:05.257Z,966.09
2018-03-29T06:52:05.892Z,965.95
2018-03-29T06:53:05.316Z,966.12
2018-03-29T06:54:06.138Z,966.03
2018-03-29T06:55:06.916Z,966.06
2018-03-29T06:56:05.171Z,966.03
2018-03-29T06:57:05.174Z,966.06
2018-03-29T06:58:05.713Z,966.12
2018-03-29T06:59:05.729Z,966.20
2018-03-29T07:00:05.746Z,966.17
2018-03-29T07:01:05.139Z,966.23
2018-03-29T07:02:05.918Z,966.15
2018-03-29T07:03:05.854Z,966.34
2018-03-29T07:04:06.137Z,966.17
2018-03-29T07:05:05.701Z,966.20
2018-03-29T07:06:05.911Z,966.20
2018-03-29T07:07:05.906Z,966.29
2018-03-29T07:08:05.556Z,966.26
2018-03-29T07:09:05.899Z,966.26
2018-03-29T07:10:05.804Z,966.37
2018-03-29T07:11:05.609Z,966.20
2018-03-29T07:12:05.772Z,966.26
2018-03-29T07:13:06.047Z,966.23
2018-03-29T07:14:05.659Z,966.40
2018-03-29T07:15:06.369Z,966.31
2018-03-29T07:16:05.482Z,966.34
2018-03-29T07:17:10.942Z,966.37
2018-03-29T07:18:05.875Z,966.34
2018-03-29T07:19:06.602Z,966.31
2018-03-29T07:20:05.884Z,966.45
2018-03-29T07:21:05.648Z,966.36
2018-03-29T07:22:05.110Z,966.36
2018-03-29T07:23:05.569Z,966.56
2018-03-29T07:24:05.210Z,966.47
2018-03-29T07:25:05.995Z,966.53
2018-03-29T07:26:05.462Z,966.50
2018-03-29T07:27:05.487Z,966.52
2018-03-29T07:28:06.019Z,966.55
2018-03-29T07:29:04.952Z,966.47
2018-03-29T07:30:05.819Z,966.47
2018-03-29T07:31:05.213Z,966.55
2018-03-29T07:32:05.783Z,966.52
2018-03-29T07:33:05.033Z,966.58
2018-03-29T07:34:05.561Z,966.52
2018-03-29T07:35:05.426Z,966.51
2018-03-29T07:36:05.261Z,966.60
2018-03-29T07:37:05.717Z,966.48
2018-03-29T07:38:05.109Z,966.45
2018-03-29T07:39:05.462Z,966.50
2018-03-29T07:40:05.535Z,966.42
2018-03-29T07:41:05.956Z,966.53
2018-03-29T07:42:05.813Z,966.61
2018-03-29T07:43:05.132Z,966.43
2018-03-29T07:44:05.730Z,966.40
2018-03-29T07:45:05.579Z,966.34
2018-03-29T07:46:05.136Z,966.36
2018-03-29T07:47:05.876Z,966.38
2018-03-29T07:48:05.743Z,966.34
2018-03-29T07:49:05.228Z,966.37
2018-03-29T07:50:05.252Z,966.19
2018-03-29T07:51:05.756Z,966.32
2018-03-29T07:52:05.435Z,966.37
2018-03-29T07:53:05.109Z,966.25
2018-03-29T07:54:05.233Z,966.44
2018-03-29T07:55:05.417Z,966.44
2018-03-29T07:56:06.036Z,966.29
2018-03-29T07:57:05.463Z,966.37
2018-03-29T07:58:05.221Z,966.40
2018-03-29T07:59:05.955Z,966.39
2018-03-29T08:00:05.908Z,966.47
2018-03-29T08:01:05.056Z,966.39
2018-03-29T08:02:05.690Z,966.47
2018-03-29T08:03:05.500Z,966.50
2018-03-29T08:04:05.389Z,966.33
2018-03-29T08:05:05.541Z,966.42
2018-03-29T08:06:05.159Z,966.53
2018-03-29T08:07:05.696Z,966.45
2018-03-29T08:08:05.121Z,966.48
2018-03-29T08:09:06.390Z,966.54
2018-03-29T08:10:05.472Z,966.68
2018-03-29T08:11:06.144Z,966.69
2018-03-29T08:12:05.710Z,966.64
2018-03-29T08:13:05.559Z,966.64
2018-03-29T08:14:05.986Z,966.59
2018-03-29T08:15:05.968Z,966.54
2018-03-29T08:16:05.222Z,966.68
2018-03-29T08:17:05.876Z,966.59
2018-03-29T08:18:05.400Z,966.51
2018-03-29T08:19:05.149Z,966.54
2018-03-29T08:20:05.932Z,966.56
2018-03-29T08:21:05.439Z,966.59
2018-03-29T08:22:05.055Z,966.42
2018-03-29T08:23:05.793Z,966.45
2018-03-29T08:24:05.689Z,966.53
2018-03-29T08:25:05.972Z,966.50
2018-03-29T08:26:05.935Z,966.50
2018-03-29T08:27:05.247Z,966.62
2018-03-29T08:28:05.856Z,966.45
2018-03-29T08:29:05.543Z,966.47
2018-03-29T08:30:05.259Z,966.50
2018-03-29T08:31:06.076Z,966.50
2018-03-29T08:32:05.528Z,966.47
2018-03-29T08:33:05.264Z,966.47
2018-03-29T08:34:05.802Z,966.64
2018-03-29T08:35:05.939Z,966.44
2018-03-29T08:36:05.892Z,966.56
2018-03-29T08:37:05.291Z,966.56
2018-03-29T08:38:05.935Z,966.47
2018-03-29T08:39:04.986Z,966.50
2018-03-29T08:40:05.566Z,966.47
2018-03-29T08:41:05.421Z,966.61
2018-03-29T08:42:05.970Z,966.53
2018-03-29T08:43:05.321Z,966.50
2018-03-29T08:44:05.843Z,966.56
2018-03-29T08:45:05.795Z,966.47
2018-03-29T08:46:05.205Z,966.53
2018-03-29T08:47:05.076Z,966.56
2018-03-29T08:48:10.776Z,966.61
2018-03-29T08:49:05.676Z,966.61
2018-03-29T08:50:10.922Z,966.59
2018-03-29T08:51:05.881Z,966.64
2018-03-29T08:52:05.154Z,966.61
2018-03-29T08:53:05.055Z,966.64
2018-03-29T08:54:05.616Z,966.53
2018-03-29T08:55:05.688Z,966.59
2018-03-29T08:56:05.872Z,966.67
2018-03-29T08:57:04.957Z,966.56
2018-03-29T08:58:05.618Z,966.67
2018-03-29T08:59:05.154Z,966.64
2018-03-29T09:00:05.754Z,966.75
2018-03-29T09:01:05.825Z,966.61
2018-03-29T09:02:05.079Z,966.78
2018-03-29T09:03:05.132Z,966.70
2018-03-29T09:04:05.287Z,966.72
2018-03-29T09:05:06.023Z,966.75
2018-03-29T09:06:05.027Z,966.86
2018-03-29T09:07:10.901Z,966.72
2018-03-29T09:08:05.731Z,966.66
2018-03-29T09:09:05.365Z,966.69
2018-03-29T09:10:05.594Z,966.74
2018-03-29T09:11:05.132Z,966.77
2018-03-29T09:12:06.004Z,966.66
2018-03-29T09:13:05.582Z,966.69
2018-03-29T09:14:05.544Z,966.86
2018-03-29T09:15:05.464Z,966.80
2018-03-29T09:16:05.506Z,966.86
2018-03-29T09:17:05.309Z,966.91
2018-03-29T09:18:05.008Z,966.88
2018-03-29T09:19:05.199Z,966.66
2018-03-29T09:20:05.758Z,966.91
2018-03-29T09:21:05.780Z,966.83
2018-03-29T09:22:05.917Z,966.96
2018-03-29T09:23:05.144Z,966.77
2018-03-29T09:24:05.281Z,966.71
2018-03-29T09:25:05.586Z,966.79
2018-03-29T09:26:05.402Z,966.82
2018-03-29T09:27:06.002Z,966.68
2018-03-29T09:28:05.514Z,966.84
2018-03-29T09:29:05.396Z,966.93
2018-03-29T09:30:05.342Z,966.81
2018-03-29T09:31:05.791Z,966.84
2018-03-29T09:32:05.107Z,966.95
2018-03-29T09:33:05.692Z,966.95
2018-03-29T09:34:05.345Z,966.87
2018-03-29T09:35:04.971Z,966.87
2018-03-29T09:36:05.958Z,967.01
2018-03-29T09:37:05.723Z,966.98
2018-03-29T09:38:05.474Z,967.01
2018-03-29T09:39:05.061Z,967.01
2018-03-29T09:40:06.216Z,967.08
2018-03-29T09:41:05.784Z,967.14
2018-03-29T09:42:05.640Z,967.14
2018-03-29T09:43:05.786Z,967.09
2018-03-29T09:44:10.929Z,967.03
2018-03-29T09:45:05.783Z,967.15
2018-03-29T09:46:05.781Z,966.99
2018-03-29T09:47:05.530Z,967.15
2018-03-29T09:48:05.090Z,967.15
2018-03-29T09:49:05.564Z,966.99
2018-03-29T09:50:05.704Z,967.04
2018-03-29T09:51:05.269Z,967.15
2018-03-29T09:52:05.944Z,967.15
2018-03-29T09:53:05.669Z,966.99
2018-03-29T09:54:05.231Z,967.06
2018-03-29T09:55:10.913Z,967.12
2018-03-29T09:56:05.857Z,966.99
2018-03-29T09:57:05.270Z,967.03
2018-03-29T09:58:05.516Z,966.96
2018-03-29T09:59:05.959Z,966.96
2018-03-29T10:00:05.462Z,967.03
2018-03-29T10:01:05.067Z,967.20
2018-03-29T10:02:05.827Z,967.08
2018-03-29T10:03:05.361Z,967.08
2018-03-29T10:04:06.352Z,967.08
2018-03-29T10:05:06.361Z,967.11
2018-03-29T10:06:05.611Z,967.00
2018-03-29T10:07:05.879Z,966.97
2018-03-29T10:08:04.978Z,967.07
2018-03-29T10:09:05.686Z,967.02
2018-03-29T10:10:05.676Z,967.04
2018-03-29T10:11:06.653Z,967.07
2018-03-29T10:12:05.975Z,967.00
2018-03-29T10:13:05.489Z,967.04
2018-03-29T10:14:05.970Z,967.10
2018-03-29T10:15:05.695Z,967.07
2018-03-29T10:16:05.343Z,967.10
2018-03-29T10:17:05.809Z,967.15
2018-03-29T10:18:05.869Z,967.26
2018-03-29T10:19:05.013Z,967.12
2018-03-29T10:20:05.834Z,967.23
2018-03-29T10:21:05.472Z,967.06
2018-03-29T10:22:05.469Z,967.06
2018-03-29T10:23:05.632Z,967.15
2018-03-29T10:24:05.909Z,967.17
2018-03-29T10:25:06.090Z,967.06
2018-03-29T10:26:05.504Z,967.09
2018-03-29T10:27:05.141Z,967.06
2018-03-29T10:28:05.758Z,967.08
2018-03-29T10:29:05.743Z,967.17
2018-03-29T10:30:05.763Z,967.06
2018-03-29T10:31:05.909Z,967.11
2018-03-29T10:32:05.321Z,967.06
2018-03-29T10:33:04.936Z,967.08
2018-03-29T10:34:05.622Z,967.11
2018-03-29T10:35:05.580Z,967.26
2018-03-29T10:36:05.730Z,967.20
2018-03-29T10:37:05.551Z,967.14
2018-03-29T10:38:05.238Z,967.20
2018-03-29T10:39:05.754Z,967.12
2018-03-29T10:40:05.313Z,967.09
2018-03-29T10:41:05.481Z,967.17
2018-03-29T10:42:05.301Z,967.14
2018-03-29T10:43:06.037Z,967.20
2018-03-29T10:44:06.291Z,967.11
2018-03-29T10:45:05.283Z,967.11
2018-03-29T10:46:06.047Z,967.21
2018-03-29T10:47:05.011Z,967.13
2018-03-29T10:48:05.018Z,967.15
2018-03-29T10:49:05.898Z,967.15
2018-03-29T10:50:05.201Z,967.20
2018-03-29T10:51:05.038Z,967.14
2018-03-29T10:52:05.807Z,967.28
2018-03-29T10:53:05.447Z,967.28
2018-03-29T10:54:05.091Z,967.33
2018-03-29T10:55:05.741Z,967.16
2018-03-29T10:56:06.627Z,967.36
2018-03-29T10:57:05.597Z,967.41
2018-03-29T10:58:05.777Z,967.33
2018-03-29T10:59:05.748Z,967.27
2018-03-29T11:00:05.078Z,967.33
2018-03-29T11:01:05.511Z,967.19
2018-03-29T11:02:05.906Z,967.22
2018-03-29T11:03:05.371Z,967.33
2018-03-29T11:04:05.889Z,967.31
2018-03-29T11:05:05.152Z,967.28
2018-03-29T11:06:05.969Z,967.20
2018-03-29T11:07:05.239Z,967.20
2018-03-29T11:08:05.766Z,967.17
2018-03-29T11:09:04.929Z,967.26
2018-03-29T11:10:05.818Z,967.32
2018-03-29T11:11:05.617Z,967.17
2018-03-29T11:12:05.395Z,967.26
2018-03-29T11:13:10.238Z,967.20
2018-03-29T11:14:05.098Z,967.32
2018-03-29T11:15:05.682Z,967.29
2018-03-29T11:16:05.065Z,967.32
2018-03-29T11:17:05.722Z,967.20
2018-03-29T11:18:05.450Z,967.15
2018-03-29T11:19:05.030Z,967.23
2018-03-29T11:20:05.533Z,967.26
2018-03-29T11:21:05.300Z,967.26
2018-03-29T11:22:05.217Z,967.17
2018-03-29T11:23:05.984Z,967.22
2018-03-29T11:24:05.501Z,967.25
2018-03-29T11:25:05.455Z,967.16
2018-03-29T11:26:05.812Z,967.44
2018-03-29T11:27:05.903Z,967.13
2018-03-29T11:28:05.347Z,967.24
2018-03-29T11:29:04.996Z,967.19
2018-03-29T11:30:06.028Z,967.18
2018-03-29T11:31:05.216Z,967.32
2018-03-29T11:32:05.483Z,967.15
2018-03-29T11:33:05.108Z,967.20
2018-03-29T11:34:05.180Z,967.08
2018-03-29T11:35:05.903Z,967.08
2018-03-29T11:36:05.246Z,967.19
2018-03-29T11:37:04.950Z,967.16
2018-03-29T11:38:05.822Z,967.18
2018-03-29T11:39:05.659Z,967.23
2018-03-29T11:40:05.584Z,967.25
2018-03-29T11:41:05.273Z,967.22
2018-03-29T11:42:06.199Z,967.21
2018-03-29T11:43:06.026Z,967.20
2018-03-29T11:44:05.295Z,967.19
2018-03-29T11:45:05.055Z,967.40
2018-03-29T11:46:05.124Z,967.09
2018-03-29T11:47:05.578Z,967.11
2018-03-29T11:48:05.402Z,967.08
2018-03-29T11:49:05.750Z,967.13
2018-03-29T11:50:05.633Z,967.19
2018-03-29T11:51:05.329Z,967.15
2018-03-29T11:52:05.848Z,967.12
2018-03-29T11:53:05.188Z,967.12
2018-03-29T11:54:05.835Z,967.26
2018-03-29T11:55:05.289Z,967.27
2018-03-29T11:56:05.310Z,967.13
2018-03-29T11:57:05.779Z,967.21
2018-03-29T11:58:05.807Z,967.30
2018-03-29T11:59:05.829Z,967.41
2018-03-29T12:00:05.259Z,967.25
2018-03-29T12:01:05.161Z,967.25
2018-03-29T12:02:05.060Z,967.25
2018-03-29T12:03:04.963Z,967.20
2018-03-29T12:04:05.512Z,967.23
2018-03-29T12:05:05.568Z,967.31
2018-03-29T12:06:05.875Z,967.29
2018-03-29T12:07:05.664Z,967.23
2018-03-29T12:08:05.013Z,967.15
2018-03-29T12:09:05.547Z,967.29
2018-03-29T12:10:05.161Z,967.24
2018-03-29T12:11:05.929Z,967.24
2018-03-29T12:12:05.842Z,967.27
2018-03-29T12:13:05.965Z,967.33
2018-03-29T12:14:05.888Z,967.25
2018-03-29T12:15:04.982Z,967.22
2018-03-29T12:16:05.770Z,967.16
2018-03-29T12:17:05.663Z,967.25
2018-03-29T12:18:05.064Z,967.25
2018-03-29T12:19:05.604Z,967.28
2018-03-29T12:20:05.295Z,967.30
2018-03-29T12:21:05.537Z,967.10
2018-03-29T12:22:05.219Z,967.13
2018-03-29T12:23:05.820Z,967.22
2018-03-29T12:24:05.538Z,967.30
2018-03-29T12:25:05.038Z,967.13
2018-03-29T12:26:05.770Z,967.19
2018-03-29T12:27:05.399Z,967.16
2018-03-29T12:28:05.363Z,967.33